EGNX/EMA METAR and TAF weather

Enter ICAO airport designator
Station Type Date Time Source
EGNX METAR 2020/01/18 21:50 UTC NOAA

EGNX 182150Z 31006KT CAVOK 02/01 Q1034


Station Type Date Time Source
EGNX Decoded METAR 2020/01/18 21:50 UTC NOAA

East Midlands, United Kingdom (EGNX) 52-50N 001-20W
Jan 18, 2020 - 04:50 PM EST / 2020.01.18 2150 UTC
Wind: from the NW (310 degrees) at 7 MPH (6 KT):0
Visibility: greater than 7 mile(s):0
Temperature: 35 F (2 C)
Windchill: 28 F (-2 C):1
Dew Point: 33 F (1 C)
Relative Humidity: 93%
Pressure (altimeter): 30.53 in. Hg (1034 hPa)
ob: EGNX 182150Z 31006KT CAVOK 02/01 Q1034
cycle: 22

Station Type Date Time Source
EGNX TAF 2020/01/18 18:09 UTC NOAA

TAF EGNX 181653Z 1818/1918 28009KT 9999 FEW030
TEMPO 1818/1903 6000 PROB30 1903/1911 3000 BR MIFG PROB30 1916/1918 3000 BR

Example: see airport list